Bookmark and Share
Track history (hours):
 

Maersk Dartmouth

Last reported at 2014-Apr-18 05:22 UTC. Time now 2014-Apr-24 22:15 UTC.
Position S 38°23' E 140°50'.

Length 294.2 m; beam 32.2 m; draft 13.7 m.

Type: Ship (hazmat cat A). MMSI: 636091283.

NotesDate/timePositionNaut miles runAvg speedWind from/ knotsBaromVisibWave heightAir tempDewpointWater temp
2014-Apr-18 05:22S 38°23' E 140°50'1012.6
2014-Apr-18 04:33S 38°28' E 141°02'1312.8
2014-Apr-18 03:33S 38°33' E 141°17'1313.0
2014-Apr-18 02:31S 38°38' E 141°33'1212.3
2014-Apr-18 01:33S 38°41' E 141°47'1211.8
2014-Apr-18 00:33S 38°44' E 142°02'1717.3
2014-Apr-17 23:33S 38°48' E 142°24'11112.3
2014-Apr-17 14:31S 38°17' E 144°41'1111.6
2014-Apr-17 13:32S 38°14' E 144°55'1717.7
2014-Apr-17 12:33S 37°57' E 144°56'8 7.7
2014-Apr-17 11:33S 37°49' E 144°55'0 0.0
2014-Apr-17 10:28S 37°49' E 144°55'0 0.0
2014-Apr-17 09:28S 37°49' E 144°55'0 0.0
2014-Apr-17 08:28S 37°49' E 144°55'0 0.0
2014-Apr-17 07:28S 37°49' E 144°55'0 0.0
2014-Apr-17 06:28S 37°49' E 144°55'0 0.0
2014-Apr-17 05:28S 37°49' E 144°55'0 0.0
2014-Apr-17 04:28S 37°49' E 144°55'0 0.0
2014-Apr-17 03:28S 37°49' E 144°55'0 0.0
2014-Apr-17 02:28S 37°49' E 144°55'0 0.0
2014-Apr-17 01:28S 37°49' E 144°55'0 0.0
2014-Apr-17 00:28S 37°49' E 144°55'0 0.0
2014-Apr-16 23:28S 37°49' E 144°55'0 0.0
2014-Apr-16 22:28S 37°49' E 144°55'0 0.0
2014-Apr-16 21:28S 37°49' E 144°55'0 0.0
2014-Apr-16 20:28S 37°49' E 144°55'0 0.0
2014-Apr-16 19:28S 37°49' E 144°55'0 0.0
2014-Apr-16 18:28S 37°49' E 144°55'0 0.0
2014-Apr-16 17:28S 37°49' E 144°55'0 0.0
2014-Apr-16 16:28S 37°49' E 144°55'0 0.0
2014-Apr-16 15:28S 37°49' E 144°55'0 0.0
2014-Apr-16 14:28S 37°49' E 144°55'0 0.0
2014-Apr-16 13:28S 37°49' E 144°55'0 0.0
2014-Apr-16 12:28S 37°49' E 144°55'0 0.0
2014-Apr-16 11:28S 37°49' E 144°55'1 1.4
2014-Apr-16 10:33S 37°50' E 144°54'1211.8
2014-Apr-16 09:33S 38°02' E 144°55'1817.8
2014-Apr-16 08:32S 38°20' E 144°53'1414.3
2014-Apr-16 07:33S 38°21' E 144°35'7 7.1
2014-Apr-16 06:32S 38°27' E 144°39'8012.9
2014-Apr-16 00:21S 39°09' E 146°07'2513.7
2014-Apr-15 22:33S 39°07' E 146°38'1515.2
2014-Apr-15 21:33S 39°02' E 146°57'1514.8
2014-Apr-15 20:33S 38°57' E 147°15'1414.4
2014-Apr-15 19:34S 38°53' E 147°33'12812.8
2014-Apr-15 09:33S 37°49' E 149°54'1414.3
2014-Apr-15 08:34S 37°40' E 150°09'1413.5
2014-Apr-15 07:33S 37°28' E 150°15'1413.8
2014-Apr-15 06:33S 37°14' E 150°20'1 0.0
2014-Apr-13 03:33S 37°16' E 150°20'1514.9
2014-Apr-13 02:33S 37°30' E 150°14'1413.8
2014-Apr-13 01:33S 37°42' E 150°06'1313.6
2014-Apr-13 00:34S 37°50' E 149°53'14215.4
2014-Apr-12 15:20S 39°03' E 147°17'1214.7
2014-Apr-12 14:30S 39°07' E 147°02'1614.6
2014-Apr-12 13:25S 39°13' E 146°43'1314.1
2014-Apr-12 12:31S 39°17' E 146°27'1614.1
2014-Apr-12 11:22S 39°17' E 146°06'1414.0
2014-Apr-12 10:20S 39°17' E 145°48'18215.1
2014-Apr-11 22:19S 39°15' E 141°53'1114.6
2014-Apr-11 21:33S 39°13' E 141°39'1514.7
2014-Apr-11 20:33S 39°10' E 141°20'1514.8
2014-Apr-11 19:34S 39°08' E 141°01'1514.8
2014-Apr-11 18:32S 39°05' E 140°42'1515.0
2014-Apr-11 17:32S 39°02' E 140°23'5115.1
2014-Apr-11 14:07S 38°52' E 139°18'  

Dump ship's entire track history

sailing weather and tide predictions

Maersk Dartmouth — A8HD5 — position and weather